sensor_id;sensor_type;location;lat;lon;timestamp;temperature;humidity
14517;DHT22;7344;50.864;4.362;2023-08-06T00:00:04;15.60;99.90
14517;DHT22;7344;50.864;4.362;2023-08-06T00:02:30;15.70;99.90
14517;DHT22;7344;50.864;4.362;2023-08-06T00:04:56;15.60;99.90
14517;DHT22;7344;50.864;4.362;2023-08-06T00:07:21;15.60;99.90
14517;DHT22;7344;50.864;4.362;2023-08-06T00:09:47;15.60;99.90
14517;DHT22;7344;50.864;4.362;2023-08-06T00:12:13;15.70;99.90
14517;DHT22;7344;50.864;4.362;2023-08-06T00:14:38;15.70;99.90
14517;DHT22;7344;50.864;4.362;2023-08-06T00:17:04;15.60;99.90
14517;DHT22;7344;50.864;4.362;2023-08-06T00:19:31;15.60;99.90
14517;DHT22;7344;50.864;4.362;2023-08-06T00:21:57;15.60;99.90
14517;DHT22;7344;50.864;4.362;2023-08-06T00:24:22;15.60;99.90
14517;DHT22;7344;50.864;4.362;2023-08-06T00:26:48;15.60;99.90
14517;DHT22;7344;50.864;4.362;2023-08-06T00:29:14;15.70;99.90
14517;DHT22;7344;50.864;4.362;2023-08-06T00:31:39;15.70;99.90
14517;DHT22;7344;50.864;4.362;2023-08-06T00:34:05;15.70;99.90
14517;DHT22;7344;50.864;4.362;2023-08-06T00:36:31;15.70;99.90
14517;DHT22;7344;50.864;4.362;2023-08-06T00:38:56;15.70;99.90
14517;DHT22;7344;50.864;4.362;2023-08-06T00:41:22;15.70;99.90
14517;DHT22;7344;50.864;4.362;2023-08-06T00:43:48;15.70;99.90
14517;DHT22;7344;50.864;4.362;2023-08-06T00:46:13;15.70;99.90
14517;DHT22;7344;50.864;4.362;2023-08-06T00:48:40;15.80;99.90
14517;DHT22;7344;50.864;4.362;2023-08-06T00:51:08;15.80;99.90
14517;DHT22;7344;50.864;4.362;2023-08-06T00:53:35;15.80;99.90
14517;DHT22;7344;50.864;4.362;2023-08-06T00:56:00;15.80;99.90
14517;DHT22;7344;50.864;4.362;2023-08-06T00:58:26;15.80;99.90
14517;DHT22;7344;50.864;4.362;2023-08-06T01:00:52;15.80;99.90
14517;DHT22;7344;50.864;4.362;2023-08-06T01:03:18;15.80;99.90
14517;DHT22;7344;50.864;4.362;2023-08-06T01:05:43;15.80;99.90
14517;DHT22;7344;50.864;4.362;2023-08-06T01:13:48;15.90;99.90
14517;DHT22;7344;50.864;4.362;2023-08-06T01:16:16;15.80;99.90
14517;DHT22;7344;50.864;4.362;2023-08-06T01:18:42;15.80;99.90
14517;DHT22;7344;50.864;4.362;2023-08-06T01:21:14;15.80;99.90
14517;DHT22;7344;50.864;4.362;2023-08-06T01:23:40;15.80;99.90
14517;DHT22;7344;50.864;4.362;2023-08-06T01:26:39;15.80;99.90
14517;DHT22;7344;50.864;4.362;2023-08-06T01:29:15;15.90;99.90
14517;DHT22;7344;50.864;4.362;2023-08-06T01:31:43;15.90;99.90
14517;DHT22;7344;50.864;4.362;2023-08-06T01:34:17;15.90;99.90
14517;DHT22;7344;50.864;4.362;2023-08-06T01:36:45;15.90;99.90
14517;DHT22;7344;50.864;4.362;2023-08-06T01:39:10;15.90;99.90
14517;DHT22;7344;50.864;4.362;2023-08-06T01:41:36;15.90;99.90
14517;DHT22;7344;50.864;4.362;2023-08-06T01:44:02;16.00;99.90
14517;DHT22;7344;50.864;4.362;2023-08-06T01:46:27;16.00;99.90
14517;DHT22;7344;50.864;4.362;2023-08-06T01:48:53;16.00;99.90
14517;DHT22;7344;50.864;4.362;2023-08-06T01:51:18;16.10;99.90
14517;DHT22;7344;50.864;4.362;2023-08-06T01:53:44;16.10;99.90
14517;DHT22;7344;50.864;4.362;2023-08-06T01:56:09;16.00;99.90
14517;DHT22;7344;50.864;4.362;2023-08-06T01:58:35;16.00;99.90
14517;DHT22;7344;50.864;4.362;2023-08-06T02:01:01;16.00;99.90
14517;DHT22;7344;50.864;4.362;2023-08-06T02:03:27;16.00;99.90
14517;DHT22;7344;50.864;4.362;2023-08-06T02:05:53;16.00;99.90
14517;DHT22;7344;50.864;4.362;2023-08-06T02:08:18;16.00;99.90
14517;DHT22;7344;50.864;4.362;2023-08-06T02:10:45;16.00;99.90
14517;DHT22;7344;50.864;4.362;2023-08-06T02:13:10;16.00;99.90
14517;DHT22;7344;50.864;4.362;2023-08-06T02:15:45;15.90;99.90
14517;DHT22;7344;50.864;4.362;2023-08-06T02:18:13;16.00;99.90
14517;DHT22;7344;50.864;4.362;2023-08-06T02:20:38;15.80;99.90
14517;DHT22;7344;50.864;4.362;2023-08-06T02:23:04;15.80;99.90
14517;DHT22;7344;50.864;4.362;2023-08-06T02:25:30;15.80;99.90
14517;DHT22;7344;50.864;4.362;2023-08-06T02:27:55;15.80;99.90
14517;DHT22;7344;50.864;4.362;2023-08-06T02:30:21;15.80;99.90
14517;DHT22;7344;50.864;4.362;2023-08-06T02:32:46;15.70;99.90
14517;DHT22;7344;50.864;4.362;2023-08-06T02:35:12;15.60;99.90
14517;DHT22;7344;50.864;4.362;2023-08-06T02:37:37;15.60;99.90
14517;DHT22;7344;50.864;4.362;2023-08-06T02:40:03;15.60;99.90
14517;DHT22;7344;50.864;4.362;2023-08-06T02:42:29;15.60;99.90
14517;DHT22;7344;50.864;4.362;2023-08-06T02:44:55;15.70;99.90
14517;DHT22;7344;50.864;4.362;2023-08-06T02:47:20;15.60;99.90
14517;DHT22;7344;50.864;4.362;2023-08-06T02:49:46;15.60;99.90
14517;DHT22;7344;50.864;4.362;2023-08-06T02:52:12;15.70;99.90
14517;DHT22;7344;50.864;4.362;2023-08-06T02:54:38;15.70;99.90
14517;DHT22;7344;50.864;4.362;2023-08-06T02:57:04;15.70;99.90
14517;DHT22;7344;50.864;4.362;2023-08-06T02:59:30;15.70;99.90
14517;DHT22;7344;50.864;4.362;2023-08-06T03:01:56;15.80;99.90
14517;DHT22;7344;50.864;4.362;2023-08-06T03:04:21;15.80;99.90
14517;DHT22;7344;50.864;4.362;2023-08-06T03:06:49;15.90;99.90
14517;DHT22;7344;50.864;4.362;2023-08-06T03:09:15;16.00;99.90
14517;DHT22;7344;50.864;4.362;2023-08-06T03:11:41;16.10;99.90
14517;DHT22;7344;50.864;4.362;2023-08-06T03:14:06;16.00;99.90
14517;DHT22;7344;50.864;4.362;2023-08-06T03:16:32;16.00;99.90
14517;DHT22;7344;50.864;4.362;2023-08-06T03:18:57;16.10;99.90
14517;DHT22;7344;50.864;4.362;2023-08-06T03:21:23;15.90;99.90
14517;DHT22;7344;50.864;4.362;2023-08-06T03:23:48;16.10;99.90
14517;DHT22;7344;50.864;4.362;2023-08-06T03:26:14;16.10;99.90
14517;DHT22;7344;50.864;4.362;2023-08-06T03:28:40;16.10;99.90
14517;DHT22;7344;50.864;4.362;2023-08-06T03:31:05;16.00;99.90
14517;DHT22;7344;50.864;4.362;2023-08-06T03:33:31;16.10;99.90
14517;DHT22;7344;50.864;4.362;2023-08-06T03:35:57;16.00;99.90
14517;DHT22;7344;50.864;4.362;2023-08-06T03:38:22;16.10;99.90
14517;DHT22;7344;50.864;4.362;2023-08-06T03:40:48;16.10;99.90
14517;DHT22;7344;50.864;4.362;2023-08-06T03:43:14;16.00;99.90
14517;DHT22;7344;50.864;4.362;2023-08-06T03:45:43;16.00;99.90
14517;DHT22;7344;50.864;4.362;2023-08-06T03:48:09;16.00;99.90
14517;DHT22;7344;50.864;4.362;2023-08-06T03:50:35;16.10;99.90
14517;DHT22;7344;50.864;4.362;2023-08-06T03:53:01;16.00;99.90
14517;DHT22;7344;50.864;4.362;2023-08-06T03:55:27;16.00;99.90
14517;DHT22;7344;50.864;4.362;2023-08-06T03:57:53;15.90;99.90
14517;DHT22;7344;50.864;4.362;2023-08-06T04:00:18;15.90;99.90
14517;DHT22;7344;50.864;4.362;2023-08-06T04:02:44;15.90;99.90
14517;DHT22;7344;50.864;4.362;2023-08-06T04:05:09;15.80;99.90
14517;DHT22;7344;50.864;4.362;2023-08-06T04:07:35;15.60;99.90
14517;DHT22;7344;50.864;4.362;2023-08-06T04:10:03;15.70;99.90
14517;DHT22;7344;50.864;4.362;2023-08-06T04:12:29;15.60;99.90
14517;DHT22;7344;50.864;4.362;2023-08-06T04:14:57;15.60;99.90
14517;DHT22;7344;50.864;4.362;2023-08-06T04:17:23;15.50;99.90
14517;DHT22;7344;50.864;4.362;2023-08-06T04:19:53;15.40;99.90
14517;DHT22;7344;50.864;4.362;2023-08-06T04:22:19;15.20;99.90
14517;DHT22;7344;50.864;4.362;2023-08-06T04:24:45;15.20;99.90
14517;DHT22;7344;50.864;4.362;2023-08-06T04:27:12;15.10;99.90
14517;DHT22;7344;50.864;4.362;2023-08-06T04:29:38;15.10;99.90
14517;DHT22;7344;50.864;4.362;2023-08-06T04:32:06;15.10;99.90
14517;DHT22;7344;50.864;4.362;2023-08-06T04:34:32;15.10;99.90
14517;DHT22;7344;50.864;4.362;2023-08-06T04:36:59;15.00;99.90
14517;DHT22;7344;50.864;4.362;2023-08-06T04:39:24;15.00;99.90
14517;DHT22;7344;50.864;4.362;2023-08-06T04:41:50;15.00;99.90
14517;DHT22;7344;50.864;4.362;2023-08-06T04:44:16;15.00;99.90
14517;DHT22;7344;50.864;4.362;2023-08-06T04:46:41;15.00;99.90
14517;DHT22;7344;50.864;4.362;2023-08-06T04:49:07;15.00;99.90
14517;DHT22;7344;50.864;4.362;2023-08-06T04:51:32;15.00;99.90
14517;DHT22;7344;50.864;4.362;2023-08-06T04:53:58;15.00;99.90
14517;DHT22;7344;50.864;4.362;2023-08-06T04:56:24;14.90;99.90
14517;DHT22;7344;50.864;4.362;2023-08-06T04:58:50;14.80;99.90
14517;DHT22;7344;50.864;4.362;2023-08-06T05:01:16;14.80;99.90
14517;DHT22;7344;50.864;4.362;2023-08-06T05:03:41;14.80;99.90
14517;DHT22;7344;50.864;4.362;2023-08-06T05:06:07;14.80;99.90
14517;DHT22;7344;50.864;4.362;2023-08-06T05:08:33;14.80;99.90
14517;DHT22;7344;50.864;4.362;2023-08-06T05:10:58;14.80;99.90
14517;DHT22;7344;50.864;4.362;2023-08-06T05:13:24;14.80;99.90
14517;DHT22;7344;50.864;4.362;2023-08-06T05:15:50;14.80;99.90
14517;DHT22;7344;50.864;4.362;2023-08-06T05:18:16;14.80;99.90
14517;DHT22;7344;50.864;4.362;2023-08-06T05:20:42;14.70;99.90
14517;DHT22;7344;50.864;4.362;2023-08-06T05:23:08;14.70;99.90
14517;DHT22;7344;50.864;4.362;2023-08-06T05:25:40;14.70;99.90
14517;DHT22;7344;50.864;4.362;2023-08-06T05:28:06;14.70;99.90
14517;DHT22;7344;50.864;4.362;2023-08-06T05:30:32;14.70;99.90
14517;DHT22;7344;50.864;4.362;2023-08-06T05:32:57;14.70;99.90
14517;DHT22;7344;50.864;4.362;2023-08-06T05:35:23;14.80;99.90
14517;DHT22;7344;50.864;4.362;2023-08-06T05:37:53;14.80;99.90
14517;DHT22;7344;50.864;4.362;2023-08-06T05:40:18;14.80;99.90
14517;DHT22;7344;50.864;4.362;2023-08-06T05:42:44;14.80;99.90
14517;DHT22;7344;50.864;4.362;2023-08-06T05:45:10;14.80;99.90
14517;DHT22;7344;50.864;4.362;2023-08-06T05:47:35;14.90;99.90
14517;DHT22;7344;50.864;4.362;2023-08-06T05:50:01;14.80;99.90
14517;DHT22;7344;50.864;4.362;2023-08-06T05:52:26;14.80;99.90
14517;DHT22;7344;50.864;4.362;2023-08-06T05:54:52;14.80;99.90
14517;DHT22;7344;50.864;4.362;2023-08-06T05:57:18;14.80;99.90
14517;DHT22;7344;50.864;4.362;2023-08-06T05:59:44;14.80;99.90
14517;DHT22;7344;50.864;4.362;2023-08-06T06:02:09;14.80;99.90
14517;DHT22;7344;50.864;4.362;2023-08-06T06:04:35;14.80;99.90
14517;DHT22;7344;50.864;4.362;2023-08-06T06:07:01;14.80;99.90
14517;DHT22;7344;50.864;4.362;2023-08-06T06:09:26;14.90;99.90
14517;DHT22;7344;50.864;4.362;2023-08-06T06:11:52;14.90;99.90
14517;DHT22;7344;50.864;4.362;2023-08-06T06:14:18;14.90;99.90
14517;DHT22;7344;50.864;4.362;2023-08-06T06:16:44;14.90;99.90
14517;DHT22;7344;50.864;4.362;2023-08-06T06:19:09;15.00;99.90
14517;DHT22;7344;50.864;4.362;2023-08-06T06:21:35;15.00;99.90
14517;DHT22;7344;50.864;4.362;2023-08-06T06:24:00;15.10;99.90
14517;DHT22;7344;50.864;4.362;2023-08-06T06:26:26;15.20;99.90
14517;DHT22;7344;50.864;4.362;2023-08-06T06:28:52;15.30;99.90
14517;DHT22;7344;50.864;4.362;2023-08-06T06:31:17;15.40;99.90
14517;DHT22;7344;50.864;4.362;2023-08-06T06:33:43;15.40;99.90
14517;DHT22;7344;50.864;4.362;2023-08-06T06:36:08;15.50;99.90
14517;DHT22;7344;50.864;4.362;2023-08-06T06:38:35;15.70;99.90
14517;DHT22;7344;50.864;4.362;2023-08-06T06:41:01;15.80;99.90
14517;DHT22;7344;50.864;4.362;2023-08-06T06:43:28;15.70;99.90
14517;DHT22;7344;50.864;4.362;2023-08-06T06:45:58;15.80;99.90
14517;DHT22;7344;50.864;4.362;2023-08-06T06:48:28;15.70;99.90
14517;DHT22;7344;50.864;4.362;2023-08-06T06:50:55;15.80;99.90
14517;DHT22;7344;50.864;4.362;2023-08-06T06:53:21;15.70;99.90
14517;DHT22;7344;50.864;4.362;2023-08-06T06:55:56;15.80;99.90
14517;DHT22;7344;50.864;4.362;2023-08-06T06:58:21;15.90;99.90
14517;DHT22;7344;50.864;4.362;2023-08-06T07:00:48;15.80;99.90
14517;DHT22;7344;50.864;4.362;2023-08-06T07:03:15;15.80;99.90
14517;DHT22;7344;50.864;4.362;2023-08-06T07:05:40;15.70;99.90
14517;DHT22;7344;50.864;4.362;2023-08-06T07:08:06;15.70;99.90
14517;DHT22;7344;50.864;4.362;2023-08-06T07:10:32;15.70;99.90
14517;DHT22;7344;50.864;4.362;2023-08-06T07:12:57;15.80;99.90
14517;DHT22;7344;50.864;4.362;2023-08-06T07:15:23;15.80;99.90
14517;DHT22;7344;50.864;4.362;2023-08-06T07:17:48;15.90;99.90
14517;DHT22;7344;50.864;4.362;2023-08-06T07:20:14;16.00;99.90
14517;DHT22;7344;50.864;4.362;2023-08-06T07:22:40;16.00;99.90
14517;DHT22;7344;50.864;4.362;2023-08-06T07:25:05;15.90;99.90
14517;DHT22;7344;50.864;4.362;2023-08-06T07:27:32;15.90;99.90
14517;DHT22;7344;50.864;4.362;2023-08-06T07:29:58;15.80;99.90
14517;DHT22;7344;50.864;4.362;2023-08-06T07:32:24;15.60;99.90
14517;DHT22;7344;50.864;4.362;2023-08-06T07:34:50;15.60;99.90
14517;DHT22;7344;50.864;4.362;2023-08-06T07:37:21;15.60;99.90
14517;DHT22;7344;50.864;4.362;2023-08-06T07:39:47;15.80;99.90
14517;DHT22;7344;50.864;4.362;2023-08-06T07:42:13;16.00;99.90
14517;DHT22;7344;50.864;4.362;2023-08-06T07:44:38;16.20;99.90
14517;DHT22;7344;50.864;4.362;2023-08-06T07:47:04;16.50;99.90
14517;DHT22;7344;50.864;4.362;2023-08-06T07:49:30;16.70;99.90
14517;DHT22;7344;50.864;4.362;2023-08-06T07:51:56;16.80;99.90
14517;DHT22;7344;50.864;4.362;2023-08-06T07:54:21;16.90;99.90
14517;DHT22;7344;50.864;4.362;2023-08-06T07:56:47;17.20;99.90
14517;DHT22;7344;50.864;4.362;2023-08-06T07:59:13;17.40;99.90
14517;DHT22;7344;50.864;4.362;2023-08-06T08:01:38;17.80;96.40
14517;DHT22;7344;50.864;4.362;2023-08-06T08:04:04;18.10;87.50
14517;DHT22;7344;50.864;4.362;2023-08-06T08:06:30;18.00;85.40
14517;DHT22;7344;50.864;4.362;2023-08-06T08:08:56;18.20;72.00
14517;DHT22;7344;50.864;4.362;2023-08-06T08:11:21;18.40;62.30
14517;DHT22;7344;50.864;4.362;2023-08-06T08:13:47;18.60;51.30
14517;DHT22;7344;50.864;4.362;2023-08-06T08:16:12;18.70;45.30
14517;DHT22;7344;50.864;4.362;2023-08-06T08:18:38;18.70;48.20
14517;DHT22;7344;50.864;4.362;2023-08-06T08:21:03;18.30;45.00
14517;DHT22;7344;50.864;4.362;2023-08-06T08:23:29;17.90;61.20
14517;DHT22;7344;50.864;4.362;2023-08-06T08:25:56;17.50;72.50
14517;DHT22;7344;50.864;4.362;2023-08-06T08:28:22;17.40;96.60
14517;DHT22;7344;50.864;4.362;2023-08-06T08:30:47;17.30;99.90
14517;DHT22;7344;50.864;4.362;2023-08-06T08:33:13;17.20;99.90
14517;DHT22;7344;50.864;4.362;2023-08-06T08:35:39;16.90;99.90
14517;DHT22;7344;50.864;4.362;2023-08-06T08:38:05;16.70;99.90
14517;DHT22;7344;50.864;4.362;2023-08-06T08:40:39;16.20;99.90
14517;DHT22;7344;50.864;4.362;2023-08-06T08:43:07;16.30;99.90
14517;DHT22;7344;50.864;4.362;2023-08-06T08:45:35;16.40;99.90
14517;DHT22;7344;50.864;4.362;2023-08-06T08:48:04;16.50;99.90
14517;DHT22;7344;50.864;4.362;2023-08-06T08:50:30;16.60;99.90
14517;DHT22;7344;50.864;4.362;2023-08-06T08:52:56;16.70;99.90
14517;DHT22;7344;50.864;4.362;2023-08-06T08:55:22;16.90;99.90
14517;DHT22;7344;50.864;4.362;2023-08-06T08:57:49;16.90;99.90
14517;DHT22;7344;50.864;4.362;2023-08-06T09:00:15;16.90;99.90
14517;DHT22;7344;50.864;4.362;2023-08-06T09:02:42;17.00;99.90
14517;DHT22;7344;50.864;4.362;2023-08-06T09:05:09;16.90;99.70
14517;DHT22;7344;50.864;4.362;2023-08-06T09:07:41;17.20;99.90
14517;DHT22;7344;50.864;4.362;2023-08-06T09:10:10;17.20;96.30
14517;DHT22;7344;50.864;4.362;2023-08-06T09:12:36;17.10;96.30
14517;DHT22;7344;50.864;4.362;2023-08-06T09:15:02;16.80;99.90
14517;DHT22;7344;50.864;4.362;2023-08-06T09:17:29;16.60;99.90
14517;DHT22;7344;50.864;4.362;2023-08-06T09:19:54;16.60;99.90
14517;DHT22;7344;50.864;4.362;2023-08-06T09:22:20;16.70;99.90
14517;DHT22;7344;50.864;4.362;2023-08-06T09:24:46;16.70;99.90
14517;DHT22;7344;50.864;4.362;2023-08-06T09:27:12;16.60;99.90
14517;DHT22;7344;50.864;4.362;2023-08-06T09:29:42;16.40;99.90
14517;DHT22;7344;50.864;4.362;2023-08-06T09:32:08;16.20;99.90
14517;DHT22;7344;50.864;4.362;2023-08-06T09:34:34;16.10;99.90
14517;DHT22;7344;50.864;4.362;2023-08-06T09:37:00;16.00;99.90
14517;DHT22;7344;50.864;4.362;2023-08-06T09:39:30;16.00;99.90
14517;DHT22;7344;50.864;4.362;2023-08-06T09:41:57;15.90;99.90
14517;DHT22;7344;50.864;4.362;2023-08-06T09:44:26;15.90;99.90
14517;DHT22;7344;50.864;4.362;2023-08-06T09:46:53;15.80;99.90
14517;DHT22;7344;50.864;4.362;2023-08-06T09:49:20;15.80;99.90
14517;DHT22;7344;50.864;4.362;2023-08-06T09:51:49;15.60;99.90
14517;DHT22;7344;50.864;4.362;2023-08-06T09:54:17;15.50;99.90
14517;DHT22;7344;50.864;4.362;2023-08-06T09:56:44;15.50;99.90
14517;DHT22;7344;50.864;4.362;2023-08-06T09:59:10;15.60;99.90
14517;DHT22;7344;50.864;4.362;2023-08-06T10:01:38;15.80;99.90
14517;DHT22;7344;50.864;4.362;2023-08-06T10:04:05;15.80;99.90
14517;DHT22;7344;50.864;4.362;2023-08-06T10:06:34;15.90;99.90
14517;DHT22;7344;50.864;4.362;2023-08-06T10:09:05;16.00;99.90
14517;DHT22;7344;50.864;4.362;2023-08-06T10:11:31;15.80;99.90
14517;DHT22;7344;50.864;4.362;2023-08-06T10:14:06;15.90;99.90
14517;DHT22;7344;50.864;4.362;2023-08-06T10:16:33;16.00;99.90
14517;DHT22;7344;50.864;4.362;2023-08-06T10:18:59;16.00;99.90
14517;DHT22;7344;50.864;4.362;2023-08-06T10:21:25;15.90;99.90
14517;DHT22;7344;50.864;4.362;2023-08-06T10:23:54;16.00;99.90
14517;DHT22;7344;50.864;4.362;2023-08-06T10:26:20;16.00;99.90
14517;DHT22;7344;50.864;4.362;2023-08-06T10:28:46;15.90;99.90
14517;DHT22;7344;50.864;4.362;2023-08-06T10:31:11;15.80;99.90
14517;DHT22;7344;50.864;4.362;2023-08-06T10:36:08;15.60;99.90
14517;DHT22;7344;50.864;4.362;2023-08-06T10:38:35;15.60;99.90
14517;DHT22;7344;50.864;4.362;2023-08-06T10:43:48;15.50;99.90
14517;DHT22;7344;50.864;4.362;2023-08-06T10:46:26;15.60;99.90
14517;DHT22;7344;50.864;4.362;2023-08-06T10:48:53;15.70;99.90
14517;DHT22;7344;50.864;4.362;2023-08-06T10:51:19;15.80;99.90
14517;DHT22;7344;50.864;4.362;2023-08-06T10:53:47;15.60;99.90
14517;DHT22;7344;50.864;4.362;2023-08-06T10:56:13;15.50;99.90
14517;DHT22;7344;50.864;4.362;2023-08-06T10:58:40;15.80;99.90
14517;DHT22;7344;50.864;4.362;2023-08-06T11:01:06;16.00;99.90
14517;DHT22;7344;50.864;4.362;2023-08-06T11:03:33;16.20;99.90
14517;DHT22;7344;50.864;4.362;2023-08-06T11:05:59;16.20;99.90
14517;DHT22;7344;50.864;4.362;2023-08-06T11:08:26;16.20;99.90
14517;DHT22;7344;50.864;4.362;2023-08-06T11:10:53;16.20;99.90
14517;DHT22;7344;50.864;4.362;2023-08-06T11:13:19;16.20;99.90
14517;DHT22;7344;50.864;4.362;2023-08-06T11:15:45;16.30;99.90
14517;DHT22;7344;50.864;4.362;2023-08-06T11:18:11;16.40;99.90
14517;DHT22;7344;50.864;4.362;2023-08-06T11:20:37;16.50;99.90
14517;DHT22;7344;50.864;4.362;2023-08-06T11:23:03;16.40;99.90
14517;DHT22;7344;50.864;4.362;2023-08-06T11:25:28;16.30;99.90
14517;DHT22;7344;50.864;4.362;2023-08-06T11:27:54;16.40;99.90
14517;DHT22;7344;50.864;4.362;2023-08-06T11:30:20;16.40;99.90
14517;DHT22;7344;50.864;4.362;2023-08-06T11:32:46;16.40;99.90
14517;DHT22;7344;50.864;4.362;2023-08-06T11:35:13;16.30;99.90
14517;DHT22;7344;50.864;4.362;2023-08-06T11:37:43;16.30;99.90
14517;DHT22;7344;50.864;4.362;2023-08-06T11:40:09;16.20;99.90
14517;DHT22;7344;50.864;4.362;2023-08-06T11:42:36;16.10;99.90
14517;DHT22;7344;50.864;4.362;2023-08-06T11:45:03;16.10;99.90
14517;DHT22;7344;50.864;4.362;2023-08-06T11:47:30;15.80;99.90
14517;DHT22;7344;50.864;4.362;2023-08-06T11:49:55;15.60;99.90
14517;DHT22;7344;50.864;4.362;2023-08-06T11:52:23;15.50;99.90
14517;DHT22;7344;50.864;4.362;2023-08-06T11:55:22;15.60;99.90
14517;DHT22;7344;50.864;4.362;2023-08-06T11:57:48;15.70;99.90
14517;DHT22;7344;50.864;4.362;2023-08-06T12:00:14;15.60;99.90
14517;DHT22;7344;50.864;4.362;2023-08-06T12:02:41;15.40;99.90
14517;DHT22;7344;50.864;4.362;2023-08-06T12:05:11;15.50;99.90
14517;DHT22;7344;50.864;4.362;2023-08-06T12:07:38;15.70;99.90
14517;DHT22;7344;50.864;4.362;2023-08-06T12:10:05;15.80;99.90
14517;DHT22;7344;50.864;4.362;2023-08-06T12:12:30;15.90;99.90
14517;DHT22;7344;50.864;4.362;2023-08-06T12:14:56;16.10;99.90
14517;DHT22;7344;50.864;4.362;2023-08-06T12:17:23;16.30;99.90
14517;DHT22;7344;50.864;4.362;2023-08-06T12:19:49;16.40;99.90
14517;DHT22;7344;50.864;4.362;2023-08-06T12:22:16;16.40;99.90
14517;DHT22;7344;50.864;4.362;2023-08-06T12:24:46;16.40;99.90
14517;DHT22;7344;50.864;4.362;2023-08-06T12:27:12;16.70;99.90
14517;DHT22;7344;50.864;4.362;2023-08-06T12:29:41;17.00;99.90
14517;DHT22;7344;50.864;4.362;2023-08-06T12:32:08;17.00;99.90
14517;DHT22;7344;50.864;4.362;2023-08-06T12:34:33;17.10;99.10
14517;DHT22;7344;50.864;4.362;2023-08-06T12:36:59;17.20;92.80
14517;DHT22;7344;50.864;4.362;2023-08-06T12:39:24;17.20;97.90
14517;DHT22;7344;50.864;4.362;2023-08-06T12:41:50;17.00;99.20
14517;DHT22;7344;50.864;4.362;2023-08-06T12:44:16;16.50;99.90
14517;DHT22;7344;50.864;4.362;2023-08-06T12:46:41;16.30;99.90
14517;DHT22;7344;50.864;4.362;2023-08-06T12:49:07;16.40;99.90
14517;DHT22;7344;50.864;4.362;2023-08-06T12:51:32;16.60;99.90
14517;DHT22;7344;50.864;4.362;2023-08-06T12:53:59;16.50;99.90
14517;DHT22;7344;50.864;4.362;2023-08-06T12:56:25;16.70;99.90
14517;DHT22;7344;50.864;4.362;2023-08-06T12:58:50;16.80;99.90
14517;DHT22;7344;50.864;4.362;2023-08-06T13:01:16;16.90;99.90
14517;DHT22;7344;50.864;4.362;2023-08-06T13:03:41;17.00;99.90
14517;DHT22;7344;50.864;4.362;2023-08-06T13:06:07;17.10;99.90
14517;DHT22;7344;50.864;4.362;2023-08-06T13:08:35;17.10;99.90
14517;DHT22;7344;50.864;4.362;2023-08-06T13:11:01;17.00;99.90
14517;DHT22;7344;50.864;4.362;2023-08-06T13:13:26;16.90;99.90
14517;DHT22;7344;50.864;4.362;2023-08-06T13:15:52;16.70;99.90
14517;DHT22;7344;50.864;4.362;2023-08-06T13:18:18;16.60;99.90
14517;DHT22;7344;50.864;4.362;2023-08-06T13:20:44;16.40;99.90
14517;DHT22;7344;50.864;4.362;2023-08-06T13:23:09;16.30;99.90
14517;DHT22;7344;50.864;4.362;2023-08-06T13:25:35;16.10;99.90
14517;DHT22;7344;50.864;4.362;2023-08-06T13:28:05;16.10;99.90
14517;DHT22;7344;50.864;4.362;2023-08-06T13:30:31;16.00;99.90
14517;DHT22;7344;50.864;4.362;2023-08-06T13:32:56;16.00;99.90
14517;DHT22;7344;50.864;4.362;2023-08-06T13:35:23;16.10;99.90
14517;DHT22;7344;50.864;4.362;2023-08-06T13:37:49;16.20;99.90
14517;DHT22;7344;50.864;4.362;2023-08-06T13:40:15;16.20;99.90
14517;DHT22;7344;50.864;4.362;2023-08-06T13:42:41;16.00;99.90
14517;DHT22;7344;50.864;4.362;2023-08-06T13:45:07;16.10;99.90
14517;DHT22;7344;50.864;4.362;2023-08-06T13:47:33;16.10;99.90
14517;DHT22;7344;50.864;4.362;2023-08-06T13:49:58;16.00;99.90
14517;DHT22;7344;50.864;4.362;2023-08-06T13:52:26;15.80;99.90
14517;DHT22;7344;50.864;4.362;2023-08-06T13:54:52;15.80;99.90
14517;DHT22;7344;50.864;4.362;2023-08-06T13:57:18;15.80;99.90
14517;DHT22;7344;50.864;4.362;2023-08-06T13:59:43;15.90;99.90
14517;DHT22;7344;50.864;4.362;2023-08-06T14:02:10;15.80;99.90
14517;DHT22;7344;50.864;4.362;2023-08-06T14:04:35;15.70;99.90
14517;DHT22;7344;50.864;4.362;2023-08-06T14:07:03;15.70;99.90
14517;DHT22;7344;50.864;4.362;2023-08-06T14:09:29;15.60;99.90
14517;DHT22;7344;50.864;4.362;2023-08-06T14:11:54;15.70;99.90
14517;DHT22;7344;50.864;4.362;2023-08-06T14:14:20;15.80;99.90
14517;DHT22;7344;50.864;4.362;2023-08-06T14:16:54;15.90;99.90
14517;DHT22;7344;50.864;4.362;2023-08-06T14:19:20;16.10;99.90
14517;DHT22;7344;50.864;4.362;2023-08-06T14:21:46;16.20;99.90
14517;DHT22;7344;50.864;4.362;2023-08-06T14:24:11;16.20;99.90
14517;DHT22;7344;50.864;4.362;2023-08-06T14:26:37;16.30;99.90
14517;DHT22;7344;50.864;4.362;2023-08-06T14:29:03;16.20;99.90
14517;DHT22;7344;50.864;4.362;2023-08-06T14:31:29;16.20;99.90
14517;DHT22;7344;50.864;4.362;2023-08-06T14:33:54;16.20;99.90
14517;DHT22;7344;50.864;4.362;2023-08-06T14:36:20;16.10;99.90
14517;DHT22;7344;50.864;4.362;2023-08-06T14:38:46;15.90;99.90
14517;DHT22;7344;50.864;4.362;2023-08-06T14:41:11;16.00;99.90
14517;DHT22;7344;50.864;4.362;2023-08-06T14:43:37;16.20;99.90
14517;DHT22;7344;50.864;4.362;2023-08-06T14:46:02;16.20;99.90
14517;DHT22;7344;50.864;4.362;2023-08-06T14:48:29;16.30;99.90
14517;DHT22;7344;50.864;4.362;2023-08-06T14:50:55;16.30;99.90
14517;DHT22;7344;50.864;4.362;2023-08-06T14:53:21;16.40;99.90
14517;DHT22;7344;50.864;4.362;2023-08-06T14:55:47;16.50;99.90
14517;DHT22;7344;50.864;4.362;2023-08-06T14:58:12;16.50;99.90
14517;DHT22;7344;50.864;4.362;2023-08-06T15:00:38;16.60;99.90
14517;DHT22;7344;50.864;4.362;2023-08-06T15:03:04;16.70;99.90
14517;DHT22;7344;50.864;4.362;2023-08-06T15:05:29;16.80;99.90
14517;DHT22;7344;50.864;4.362;2023-08-06T15:07:55;16.90;99.90
14517;DHT22;7344;50.864;4.362;2023-08-06T15:10:21;17.00;99.90
14517;DHT22;7344;50.864;4.362;2023-08-06T15:12:47;16.80;99.90
14517;DHT22;7344;50.864;4.362;2023-08-06T15:15:13;16.60;99.90
14517;DHT22;7344;50.864;4.362;2023-08-06T15:17:39;16.60;99.90
14517;DHT22;7344;50.864;4.362;2023-08-06T15:20:05;16.50;99.90
14517;DHT22;7344;50.864;4.362;2023-08-06T15:22:31;16.40;99.90
14517;DHT22;7344;50.864;4.362;2023-08-06T15:25:01;16.10;99.90
14517;DHT22;7344;50.864;4.362;2023-08-06T15:27:27;15.80;99.90
14517;DHT22;7344;50.864;4.362;2023-08-06T15:29:53;15.50;99.90
14517;DHT22;7344;50.864;4.362;2023-08-06T15:32:18;15.30;99.90
14517;DHT22;7344;50.864;4.362;2023-08-06T15:34:44;15.20;99.90
14517;DHT22;7344;50.864;4.362;2023-08-06T15:37:10;15.30;99.90
14517;DHT22;7344;50.864;4.362;2023-08-06T15:39:35;15.40;99.90
14517;DHT22;7344;50.864;4.362;2023-08-06T15:42:02;15.70;99.90
14517;DHT22;7344;50.864;4.362;2023-08-06T15:44:28;15.90;99.90
14517;DHT22;7344;50.864;4.362;2023-08-06T15:46:53;16.20;99.90
14517;DHT22;7344;50.864;4.362;2023-08-06T15:49:19;16.40;99.90